createdAt,value
2018-06-29T00:00:32.412Z,99978.00
2018-06-29T00:03:02.327Z,99979.00
2018-06-29T00:05:32.260Z,99980.00
2018-06-29T00:08:02.171Z,99978.00
2018-06-29T00:10:32.088Z,99979.00
2018-06-29T00:13:02.008Z,99980.00
2018-06-29T00:15:32.092Z,99980.00
2018-06-29T00:18:01.860Z,99975.00
2018-06-29T00:20:31.773Z,99981.00
2018-06-29T00:23:01.693Z,99983.00
2018-06-29T00:25:31.616Z,99977.00
2018-06-29T00:28:01.524Z,99980.00
2018-06-29T00:30:31.448Z,99975.00
2018-06-29T00:33:01.359Z,99974.00
2018-06-29T00:35:31.275Z,99978.00
2018-06-29T00:38:01.232Z,99976.00
2018-06-29T00:40:31.155Z,99973.00
2018-06-29T00:43:01.138Z,99971.00
2018-06-29T00:45:31.046Z,99973.00
2018-06-29T00:48:00.946Z,99971.00
2018-06-29T00:50:30.849Z,99971.00
2018-06-29T00:53:00.753Z,99976.00
2018-06-29T00:55:30.654Z,99966.00
2018-06-29T00:58:00.554Z,99972.00
2018-06-29T01:00:30.457Z,99970.00
2018-06-29T01:03:00.358Z,99971.00
2018-06-29T01:05:30.262Z,99967.00
2018-06-29T01:08:00.155Z,99966.00
2018-06-29T01:10:30.058Z,99963.00
2018-06-29T01:12:59.970Z,99964.00
2018-06-29T01:15:29.882Z,99956.00
2018-06-29T01:17:59.774Z,99959.00
2018-06-29T01:20:29.675Z,99969.00
2018-06-29T01:22:59.573Z,99959.00
2018-06-29T01:25:29.482Z,99946.00
2018-06-29T01:27:59.371Z,99945.00
2018-06-29T01:30:29.279Z,99939.00
2018-06-29T01:32:59.194Z,99941.00
2018-06-29T01:35:29.101Z,99948.00
2018-06-29T01:37:58.997Z,99945.00
2018-06-29T01:40:28.899Z,99949.00
2018-06-29T01:42:58.807Z,99942.00
2018-06-29T01:45:28.726Z,99939.00
2018-06-29T01:47:58.698Z,99941.00
2018-06-29T01:50:28.605Z,99942.00
2018-06-29T01:52:58.506Z,99942.00
2018-06-29T01:55:28.422Z,99940.00
2018-06-29T01:57:58.328Z,99939.00
2018-06-29T02:00:28.242Z,99937.00
2018-06-29T02:02:58.141Z,99929.00
2018-06-29T02:05:28.050Z,99934.00
2018-06-29T02:07:57.994Z,99935.00
2018-06-29T02:10:27.870Z,99924.00
2018-06-29T02:12:57.778Z,99929.00
2018-06-29T02:15:27.742Z,99927.00
2018-06-29T02:17:57.642Z,99928.00
2018-06-29T02:20:27.662Z,99922.00
2018-06-29T02:22:57.560Z,99924.00
2018-06-29T02:25:27.502Z,99924.00
2018-06-29T02:27:57.398Z,99922.00
2018-06-29T02:30:27.340Z,99919.00
2018-06-29T02:32:57.377Z,99917.00
2018-06-29T02:35:27.303Z,99915.00
2018-06-29T02:37:57.219Z,99915.00
2018-06-29T02:40:27.146Z,99918.00
2018-06-29T02:42:57.061Z,99911.00
2018-06-29T02:45:26.970Z,99907.00
2018-06-29T02:47:56.902Z,99911.00
2018-06-29T02:50:26.794Z,99907.00
2018-06-29T02:52:56.766Z,99908.00
2018-06-29T02:55:26.714Z,99902.00
2018-06-29T02:57:56.614Z,99897.00
2018-06-29T03:00:26.540Z,99901.00
2018-06-29T03:02:56.478Z,99907.00
2018-06-29T03:05:26.391Z,99908.00
2018-06-29T03:07:56.298Z,99908.00
2018-06-29T03:10:26.209Z,99909.00
2018-06-29T03:12:56.130Z,99908.00
2018-06-29T03:15:26.046Z,99901.00
2018-06-29T03:17:55.953Z,99904.00
2018-06-29T03:20:25.862Z,99904.00
2018-06-29T03:22:56.230Z,99898.00
2018-06-29T03:25:26.158Z,99895.00
2018-06-29T03:27:56.070Z,99890.00
2018-06-29T03:30:25.981Z,99895.00
2018-06-29T03:32:55.939Z,99887.00
2018-06-29T03:35:25.776Z,99887.00
2018-06-29T03:37:55.826Z,99892.00
2018-06-29T03:40:25.791Z,99889.00
2018-06-29T03:42:55.907Z,99881.00
2018-06-29T03:45:25.802Z,99892.00
2018-06-29T03:47:55.709Z,99888.00
2018-06-29T03:50:25.618Z,99884.00
2018-06-29T03:52:55.523Z,99892.00
2018-06-29T03:55:25.426Z,99893.00
2018-06-29T03:57:55.414Z,99888.00
2018-06-29T04:00:25.357Z,99895.00
2018-06-29T04:02:55.238Z,99893.00
2018-06-29T04:05:25.135Z,99897.00
2018-06-29T04:07:55.106Z,99898.00
2018-06-29T04:10:25.016Z,99898.00
2018-06-29T04:12:54.956Z,99892.00
2018-06-29T04:15:24.850Z,99888.00
2018-06-29T04:17:54.742Z,99890.00
2018-06-29T04:20:24.899Z,99889.00
2018-06-29T04:22:55.194Z,99891.00
2018-06-29T04:25:25.106Z,99885.00
2018-06-29T04:27:55.087Z,99886.00
2018-06-29T04:30:24.988Z,99885.00
2018-06-29T04:32:54.927Z,99890.00
2018-06-29T04:35:24.808Z,99894.00
2018-06-29T04:37:54.748Z,99899.00
2018-06-29T04:40:24.647Z,99896.00
2018-06-29T04:42:54.566Z,99892.00
2018-06-29T04:45:24.473Z,99894.00
2018-06-29T04:47:54.386Z,99889.00
2018-06-29T04:50:24.274Z,99889.00
2018-06-29T04:52:54.422Z,99891.00
2018-06-29T04:55:24.322Z,99894.00
2018-06-29T04:57:54.226Z,99888.00
2018-06-29T05:00:24.229Z,99895.00
2018-06-29T05:02:54.133Z,99888.00
2018-06-29T05:05:24.390Z,99890.00
2018-06-29T05:07:54.296Z,99886.00
2018-06-29T05:10:24.193Z,99882.00
2018-06-29T05:12:54.114Z,99883.00
2018-06-29T05:15:24.021Z,99885.00
2018-06-29T05:17:53.926Z,99888.00
2018-06-29T05:20:23.852Z,99888.00
2018-06-29T05:22:53.811Z,99884.00
2018-06-29T05:25:23.709Z,99880.00
2018-06-29T05:27:53.618Z,99878.00
2018-06-29T05:30:23.522Z,99877.00
2018-06-29T05:32:53.426Z,99882.00
2018-06-29T05:35:23.320Z,99875.00
2018-06-29T05:37:53.230Z,99874.00
2018-06-29T05:40:23.133Z,99875.00
2018-06-29T05:42:53.033Z,99873.00
2018-06-29T05:45:22.931Z,99878.00
2018-06-29T05:47:52.841Z,99878.00
2018-06-29T05:50:22.738Z,99881.00
2018-06-29T05:52:52.659Z,99871.00
2018-06-29T05:55:22.614Z,99874.00
2018-06-29T05:57:52.519Z,99875.00
2018-06-29T06:00:22.476Z,99876.00
2018-06-29T06:02:52.379Z,99877.00
2018-06-29T06:05:22.289Z,99876.00
2018-06-29T06:07:52.213Z,99872.00
2018-06-29T06:10:22.122Z,99883.00
2018-06-29T06:12:52.065Z,99887.00
2018-06-29T06:15:21.976Z,99886.00
2018-06-29T06:17:51.893Z,99886.00
2018-06-29T06:20:21.793Z,99892.00
2018-06-29T06:22:51.687Z,99893.00
2018-06-29T06:25:21.604Z,99896.00
2018-06-29T06:27:51.614Z,99893.00
2018-06-29T06:30:21.530Z,99890.00
2018-06-29T06:32:51.426Z,99891.00
2018-06-29T06:35:21.330Z,99894.00
2018-06-29T06:37:51.381Z,99888.00
2018-06-29T06:40:21.292Z,99890.00
2018-06-29T06:42:51.194Z,99890.00
2018-06-29T06:45:21.102Z,99890.00
2018-06-29T06:47:51.008Z,99893.00
2018-06-29T06:50:20.910Z,99905.00
2018-06-29T06:52:50.818Z,99909.00
2018-06-29T06:55:20.781Z,99899.00
2018-06-29T06:57:50.674Z,99903.00
2018-06-29T07:00:20.630Z,99897.00
2018-06-29T07:02:50.606Z,99895.00
2018-06-29T07:05:20.515Z,99904.00
2018-06-29T07:07:50.415Z,99894.00
2018-06-29T07:10:20.333Z,99888.00
2018-06-29T07:12:50.303Z,99886.00
2018-06-29T07:15:20.146Z,99888.00
2018-06-29T07:17:50.050Z,99885.00
2018-06-29T07:20:19.959Z,99884.00
2018-06-29T07:22:49.853Z,99889.00
2018-06-29T07:25:19.759Z,99884.00
2018-06-29T07:27:49.658Z,99886.00
2018-06-29T07:30:19.570Z,99895.00
2018-06-29T07:32:49.471Z,99895.00
2018-06-29T07:35:19.377Z,99892.00
2018-06-29T07:37:49.286Z,99892.00
2018-06-29T07:40:19.191Z,99896.00
2018-06-29T07:42:49.089Z,99898.00
2018-06-29T07:45:19.006Z,99894.00
2018-06-29T07:47:48.906Z,99890.00
2018-06-29T07:50:18.814Z,99884.00
2018-06-29T07:52:49.097Z,99886.00
2018-06-29T07:55:18.957Z,99886.00
2018-06-29T07:57:48.853Z,99888.00
2018-06-29T08:00:18.765Z,99888.00
2018-06-29T08:02:48.704Z,99886.00
2018-06-29T08:05:18.553Z,99888.00
2018-06-29T08:07:48.457Z,99883.00
2018-06-29T08:10:18.358Z,99880.00
2018-06-29T08:12:48.273Z,99883.00
2018-06-29T08:15:18.195Z,99889.00
2018-06-29T08:17:48.103Z,99889.00
2018-06-29T08:20:18.014Z,99887.00
2018-06-29T08:22:47.918Z,99885.00
2018-06-29T08:25:17.962Z,99878.00
2018-06-29T08:27:47.870Z,99876.00
2018-06-29T08:30:17.774Z,99870.00
2018-06-29T08:32:47.671Z,99868.00
2018-06-29T08:35:17.574Z,99864.00
2018-06-29T08:37:47.483Z,99861.00
2018-06-29T08:40:17.386Z,99858.00
2018-06-29T08:42:47.285Z,99862.00
2018-06-29T08:45:17.217Z,99860.00
2018-06-29T08:47:47.125Z,99854.00
2018-06-29T08:50:17.037Z,99849.00
2018-06-29T08:52:46.956Z,99850.00
2018-06-29T08:55:16.860Z,99848.00
2018-06-29T08:57:46.802Z,99846.00
2018-06-29T09:00:16.703Z,99843.00
2018-06-29T09:02:46.633Z,99845.00
2018-06-29T09:05:16.570Z,99837.00
2018-06-29T09:07:46.493Z,99837.00
2018-06-29T09:10:16.398Z,99841.00
2018-06-29T09:12:46.326Z,99834.00
2018-06-29T09:15:16.242Z,99830.00
2018-06-29T09:17:46.301Z,99836.00
2018-06-29T09:20:16.206Z,99837.00
2018-06-29T09:22:46.167Z,99824.00
2018-06-29T09:25:16.380Z,99822.00
2018-06-29T09:27:46.345Z,99824.00
2018-06-29T09:30:17.148Z,99821.00
2018-06-29T09:32:47.085Z,99816.00
2018-06-29T09:35:16.989Z,99807.00
2018-06-29T09:37:46.938Z,99811.00
2018-06-29T09:40:16.856Z,99806.00
2018-06-29T09:42:46.799Z,99802.00
2018-06-29T09:45:16.789Z,99794.00
2018-06-29T09:47:46.792Z,99796.00
2018-06-29T09:50:16.629Z,99795.00
2018-06-29T09:52:46.576Z,99790.00
2018-06-29T09:55:16.474Z,99782.00
2018-06-29T09:57:46.515Z,99791.00
2018-06-29T10:00:20.561Z,99793.00
2018-06-29T10:02:50.466Z,99790.00
2018-06-29T10:05:20.370Z,99786.00
2018-06-29T10:07:50.282Z,99791.00
2018-06-29T10:10:20.189Z,99778.00
2018-06-29T10:12:50.222Z,99775.00
2018-06-29T10:15:20.483Z,99781.00
2018-06-29T10:17:50.502Z,99788.00
2018-06-29T10:20:20.430Z,99771.00
2018-06-29T10:22:50.327Z,99768.00
2018-06-29T10:25:20.324Z,99762.00
2018-06-29T10:27:50.142Z,99766.00
2018-06-29T10:30:20.058Z,99764.00
2018-06-29T10:32:49.979Z,99763.00
2018-06-29T10:35:19.882Z,99757.00
2018-06-29T10:37:49.810Z,99760.00
2018-06-29T10:40:19.715Z,99756.00
2018-06-29T10:42:49.646Z,99761.00
2018-06-29T10:45:19.541Z,99759.00
2018-06-29T10:47:49.462Z,99755.00
2018-06-29T10:50:19.357Z,99756.00
2018-06-29T10:52:49.290Z,99749.00
2018-06-29T10:55:19.175Z,99751.00
2018-06-29T10:57:49.085Z,99748.00
2018-06-29T11:00:18.997Z,99741.00
2018-06-29T11:02:48.929Z,99744.00
2018-06-29T11:05:18.836Z,99735.00
2018-06-29T11:07:48.761Z,99728.00
2018-06-29T11:10:18.657Z,99731.00
2018-06-29T11:12:48.582Z,99728.00
2018-06-29T11:15:18.498Z,99726.00
2018-06-29T11:17:48.429Z,99722.00
2018-06-29T11:20:18.415Z,99724.00
2018-06-29T11:22:48.322Z,99722.00
2018-06-29T11:25:18.230Z,99723.00
2018-06-29T11:27:48.171Z,99722.00
2018-06-29T11:30:18.130Z,99722.00
2018-06-29T11:32:48.372Z,99714.00
2018-06-29T11:35:18.272Z,99722.00
2018-06-29T11:37:48.345Z,99717.00
2018-06-29T11:40:18.237Z,99717.00
2018-06-29T11:42:48.146Z,99723.00
2018-06-29T11:45:18.054Z,99728.00
2018-06-29T11:47:48.121Z,99724.00
2018-06-29T11:50:18.036Z,99715.00
2018-06-29T11:52:47.954Z,99726.00
2018-06-29T11:55:17.861Z,99710.00
2018-06-29T11:57:47.965Z,99705.00
2018-06-29T12:00:17.874Z,99709.00
2018-06-29T12:02:47.821Z,99704.00
2018-06-29T12:05:17.730Z,99706.00
2018-06-29T12:07:47.931Z,99703.00
2018-06-29T12:10:17.906Z,99700.00
2018-06-29T12:12:47.866Z,99705.00
2018-06-29T12:15:17.790Z,99708.00
2018-06-29T12:17:47.634Z,99707.00
2018-06-29T12:20:17.454Z,99709.00
2018-06-29T12:22:47.446Z,99702.00
2018-06-29T12:25:17.405Z,99702.00
2018-06-29T12:27:47.538Z,99694.00
2018-06-29T12:30:17.455Z,99696.00
2018-06-29T12:32:47.362Z,99698.00
2018-06-29T12:35:17.274Z,99698.00
2018-06-29T12:37:47.493Z,99700.00
2018-06-29T12:40:17.417Z,99695.00
2018-06-29T12:42:47.319Z,99695.00
2018-06-29T12:45:17.227Z,99695.00
2018-06-29T12:47:47.289Z,99700.00
2018-06-29T12:50:17.213Z,99699.00
2018-06-29T12:52:47.181Z,99698.00
2018-06-29T12:55:17.102Z,99694.00
2018-06-29T12:57:47.108Z,99687.00
2018-06-29T13:00:16.991Z,99686.00
2018-06-29T13:02:46.894Z,99687.00
2018-06-29T13:05:16.825Z,99683.00
2018-06-29T13:07:46.834Z,99682.00
2018-06-29T13:10:16.802Z,99679.00
2018-06-29T13:12:46.706Z,99674.00
2018-06-29T13:15:16.622Z,99675.00
2018-06-29T13:17:46.543Z,99675.00
2018-06-29T13:20:16.463Z,99675.00
2018-06-29T13:22:46.358Z,99671.00
2018-06-29T13:25:16.336Z,99667.00
2018-06-29T13:27:46.170Z,99670.00
2018-06-29T13:30:16.141Z,99669.00
2018-06-29T13:32:46.038Z,99670.00
2018-06-29T13:35:16.038Z,99668.00
2018-06-29T13:37:46.130Z,99663.00
2018-06-29T13:40:16.050Z,99661.00
2018-06-29T13:42:45.979Z,99655.00
2018-06-29T13:45:15.886Z,99657.00
2018-06-29T13:47:45.797Z,99657.00
2018-06-29T13:50:15.709Z,99655.00
2018-06-29T13:52:45.614Z,99657.00
2018-06-29T13:55:15.510Z,99654.00
2018-06-29T13:57:45.458Z,99654.00
2018-06-29T14:00:15.358Z,99651.00
2018-06-29T14:02:45.332Z,99652.00
2018-06-29T14:05:15.262Z,99643.00
2018-06-29T14:07:45.981Z,99639.00
2018-06-29T14:10:15.930Z,99637.00
2018-06-29T14:12:45.957Z,99631.00
2018-06-29T14:15:15.899Z,99626.00
2018-06-29T14:17:45.868Z,99621.00
2018-06-29T14:20:15.878Z,99621.00
2018-06-29T14:22:45.777Z,99619.00
2018-06-29T14:25:15.702Z,99620.00
2018-06-29T14:27:45.593Z,99613.00
2018-06-29T14:30:15.510Z,99614.00
2018-06-29T14:32:45.418Z,99619.00
2018-06-29T14:35:15.330Z,99616.00
2018-06-29T14:37:45.230Z,99612.00
2018-06-29T14:40:15.158Z,99610.00
2018-06-29T14:42:45.070Z,99614.00
2018-06-29T14:45:14.998Z,99609.00
2018-06-29T14:47:44.906Z,99608.00
2018-06-29T14:50:14.823Z,99601.00
2018-06-29T14:52:44.735Z,99593.00
2018-06-29T14:55:14.681Z,99591.00
2018-06-29T14:57:44.583Z,99583.00
2018-06-29T15:00:14.499Z,99581.00
2018-06-29T15:02:44.396Z,99576.00
2018-06-29T15:05:14.302Z,99583.00
2018-06-29T15:07:44.226Z,99581.00
2018-06-29T15:10:14.137Z,99581.00
2018-06-29T15:12:44.050Z,99578.00
2018-06-29T15:15:13.958Z,99573.00
2018-06-29T15:17:43.858Z,99586.00
2018-06-29T15:20:13.807Z,99579.00
2018-06-29T15:22:43.709Z,99579.00
2018-06-29T15:25:13.629Z,99574.00
2018-06-29T15:27:43.660Z,99575.00
2018-06-29T15:30:13.529Z,99569.00
2018-06-29T15:32:43.437Z,99563.00
2018-06-29T15:35:13.346Z,99563.00
2018-06-29T15:37:43.246Z,99561.00
2018-06-29T15:40:13.162Z,99556.00
2018-06-29T15:42:43.061Z,99556.00
2018-06-29T15:45:13.023Z,99548.00
2018-06-29T15:47:43.013Z,99549.00
2018-06-29T15:50:12.932Z,99549.00
2018-06-29T15:52:42.829Z,99552.00
2018-06-29T15:55:12.749Z,99549.00
2018-06-29T15:57:42.650Z,99545.00
2018-06-29T16:00:12.556Z,99545.00
2018-06-29T16:02:42.458Z,99535.00
2018-06-29T16:05:12.393Z,99540.00
2018-06-29T16:07:42.313Z,99529.00
2018-06-29T16:10:12.246Z,99535.00
2018-06-29T16:12:42.158Z,99533.00
2018-06-29T16:15:12.078Z,99533.00
2018-06-29T16:17:42.016Z,99533.00
2018-06-29T16:20:12.013Z,99538.00
2018-06-29T16:22:41.925Z,99525.00
2018-06-29T16:25:11.829Z,99529.00
2018-06-29T16:27:41.737Z,99528.00
2018-06-29T16:30:11.634Z,99523.00
2018-06-29T16:32:41.548Z,99524.00
2018-06-29T16:35:11.622Z,99522.00
2018-06-29T16:37:41.524Z,99522.00
2018-06-29T16:40:11.422Z,99523.00
2018-06-29T16:42:41.331Z,99515.00
2018-06-29T16:45:11.238Z,99511.00
2018-06-29T16:47:41.239Z,99515.00
2018-06-29T16:50:11.143Z,99508.00
2018-06-29T16:52:41.089Z,99516.00
2018-06-29T16:55:10.981Z,99516.00
2018-06-29T16:57:40.890Z,99515.00
2018-06-29T17:00:10.835Z,99523.00
2018-06-29T17:02:40.733Z,99524.00
2018-06-29T17:05:10.643Z,99516.00
2018-06-29T17:07:40.693Z,99521.00
2018-06-29T17:10:10.617Z,99519.00
2018-06-29T17:12:40.530Z,99514.00
2018-06-29T17:15:10.451Z,99516.00
2018-06-29T17:17:40.361Z,99514.00
2018-06-29T17:20:10.344Z,99520.00
2018-06-29T17:22:40.283Z,99512.00
2018-06-29T17:25:09.990Z,99517.00
2018-06-29T17:27:39.850Z,99524.00
2018-06-29T17:30:09.760Z,99526.00
2018-06-29T17:32:39.725Z,99525.00
2018-06-29T17:35:09.631Z,99522.00
2018-06-29T17:37:39.569Z,99523.00
2018-06-29T17:40:09.470Z,99525.00
2018-06-29T17:42:39.387Z,99524.00
2018-06-29T17:45:09.289Z,99530.00
2018-06-29T17:47:39.210Z,99535.00
2018-06-29T17:50:09.121Z,99537.00
2018-06-29T17:52:39.043Z,99530.00
2018-06-29T17:55:09.078Z,99534.00
2018-06-29T17:57:38.877Z,99540.00
2018-06-29T18:00:08.788Z,99538.00
2018-06-29T18:02:38.706Z,99541.00
2018-06-29T18:05:08.682Z,99546.00
2018-06-29T18:07:38.569Z,99543.00
2018-06-29T18:10:08.572Z,99545.00
2018-06-29T18:12:38.497Z,99546.00
2018-06-29T18:15:08.423Z,99549.00
2018-06-29T18:17:38.496Z,99550.00
2018-06-29T18:20:08.438Z,99548.00
2018-06-29T18:22:38.438Z,99554.00
2018-06-29T18:25:08.440Z,99548.00
2018-06-29T18:27:38.306Z,99552.00
2018-06-29T18:30:08.950Z,99555.00
2018-06-29T18:32:38.866Z,99551.00
2018-06-29T18:35:08.837Z,99553.00
2018-06-29T18:37:38.754Z,99554.00
2018-06-29T18:40:08.694Z,99556.00
2018-06-29T18:42:38.655Z,99559.00
2018-06-29T18:45:08.601Z,99560.00
2018-06-29T18:47:38.514Z,99557.00
2018-06-29T18:50:08.473Z,99563.00
2018-06-29T18:52:38.390Z,99561.00
2018-06-29T18:55:08.362Z,99561.00
2018-06-29T18:57:38.327Z,99562.00
2018-06-29T19:00:08.219Z,99565.00
2018-06-29T19:02:38.149Z,99567.00
2018-06-29T19:05:08.119Z,99566.00
2018-06-29T19:07:38.107Z,99568.00
2018-06-29T19:10:07.998Z,99569.00
2018-06-29T19:12:37.917Z,99575.00
2018-06-29T19:15:07.985Z,99573.00
2018-06-29T19:17:37.925Z,99575.00
2018-06-29T19:20:08.046Z,99578.00
2018-06-29T19:22:38.373Z,99583.00
2018-06-29T19:25:08.366Z,99583.00
2018-06-29T19:27:38.471Z,99578.00
2018-06-29T19:30:08.601Z,99589.00
2018-06-29T19:32:38.714Z,99587.00
2018-06-29T19:35:08.793Z,99594.00
2018-06-29T19:37:39.067Z,99596.00
2018-06-29T19:40:09.210Z,99598.00
2018-06-29T19:42:39.153Z,99594.00
2018-06-29T19:45:09.168Z,99596.00
2018-06-29T19:47:39.034Z,99594.00
2018-06-29T19:50:09.014Z,99602.00
2018-06-29T19:52:39.125Z,99603.00
2018-06-29T19:55:09.094Z,99603.00
2018-06-29T19:57:39.034Z,99606.00
2018-06-29T20:00:09.016Z,99607.00
2018-06-29T20:02:38.985Z,99607.00
2018-06-29T20:05:08.974Z,99611.00
2018-06-29T20:07:38.945Z,99611.00
2018-06-29T20:10:09.430Z,99613.00
2018-06-29T20:12:39.350Z,99609.00
2018-06-29T20:15:09.854Z,99611.00
2018-06-29T20:17:39.778Z,99619.00
2018-06-29T20:20:10.356Z,99615.00
2018-06-29T20:22:40.286Z,99613.00
2018-06-29T20:25:10.222Z,99617.00
2018-06-29T20:27:40.129Z,99623.00
2018-06-29T20:30:10.245Z,99614.00
2018-06-29T20:32:40.167Z,99620.00
2018-06-29T20:35:10.094Z,99613.00
2018-06-29T20:37:40.029Z,99617.00
2018-06-29T20:40:10.009Z,99620.00
2018-06-29T20:42:39.894Z,99618.00
2018-06-29T20:45:09.839Z,99614.00
2018-06-29T20:47:39.730Z,99614.00
2018-06-29T20:50:09.678Z,99618.00
2018-06-29T20:52:39.567Z,99620.00
2018-06-29T20:55:09.497Z,99616.00
2018-06-29T20:57:39.386Z,99624.00
2018-06-29T21:00:09.432Z,99616.00
2018-06-29T21:02:39.340Z,99614.00
2018-06-29T21:05:09.794Z,99613.00
2018-06-29T21:07:39.998Z,99614.00
2018-06-29T21:10:09.918Z,99610.00
2018-06-29T21:12:39.821Z,99615.00
2018-06-29T21:15:09.758Z,99615.00
2018-06-29T21:17:39.657Z,99612.00
2018-06-29T21:20:09.569Z,99608.00
2018-06-29T21:22:39.476Z,99611.00
2018-06-29T21:25:09.509Z,99613.00
2018-06-29T21:27:39.386Z,99610.00
2018-06-29T21:30:09.301Z,99611.00
2018-06-29T21:32:39.020Z,99610.00
2018-06-29T21:35:08.829Z,99608.00
2018-06-29T21:37:38.819Z,99604.00
2018-06-29T21:40:08.730Z,99604.00
2018-06-29T21:42:38.696Z,99604.00
2018-06-29T21:45:08.571Z,99601.00
2018-06-29T21:47:38.473Z,99598.00
2018-06-29T21:50:08.776Z,99598.00
2018-06-29T21:52:38.740Z,99596.00
2018-06-29T21:55:08.605Z,99599.00
2018-06-29T21:57:38.653Z,99600.00
2018-06-29T22:00:11.559Z,99600.00
2018-06-29T22:02:41.573Z,99599.00
2018-06-29T22:05:12.046Z,99591.00
2018-06-29T22:07:41.960Z,99593.00
2018-06-29T22:10:11.878Z,99595.00
2018-06-29T22:12:41.779Z,99594.00
2018-06-29T22:15:15.838Z,99593.00
2018-06-29T22:17:45.738Z,99591.00
2018-06-29T22:20:15.658Z,99585.00
2018-06-29T22:22:45.620Z,99589.00
2018-06-29T22:25:15.554Z,99583.00
2018-06-29T22:27:45.447Z,99585.00
2018-06-29T22:30:15.377Z,99581.00
2018-06-29T22:32:45.282Z,99585.00
2018-06-29T22:35:15.270Z,99586.00
2018-06-29T22:37:45.407Z,99581.00
2018-06-29T22:40:15.339Z,99581.00
2018-06-29T22:42:45.287Z,99587.00
2018-06-29T22:45:15.075Z,99582.00
2018-06-29T22:47:44.909Z,99583.00
2018-06-29T22:50:14.825Z,99581.00
2018-06-29T22:52:44.737Z,99581.00
2018-06-29T22:55:14.788Z,99576.00
2018-06-29T22:57:44.705Z,99585.00
2018-06-29T23:00:14.606Z,99582.00
2018-06-29T23:02:44.521Z,99581.00
2018-06-29T23:05:14.430Z,99580.00
2018-06-29T23:07:44.474Z,99579.00
2018-06-29T23:12:51.502Z,99583.00
2018-06-29T23:15:21.437Z,99575.00
2018-06-29T23:17:51.341Z,99575.00
2018-06-29T23:20:21.406Z,99575.00
2018-06-29T23:22:51.077Z,99571.00
2018-06-29T23:25:20.874Z,99574.00
2018-06-29T23:27:50.787Z,99576.00
2018-06-29T23:30:20.706Z,99579.00
2018-06-29T23:32:50.621Z,99579.00
2018-06-29T23:35:20.546Z,99570.00
2018-06-29T23:37:50.447Z,99567.00
2018-06-29T23:40:20.365Z,99572.00
2018-06-29T23:42:50.289Z,99562.00
2018-06-29T23:45:20.243Z,99561.00
2018-06-29T23:47:50.154Z,99561.00
2018-06-29T23:50:20.098Z,99558.00
2018-06-29T23:52:50.152Z,99561.00
2018-06-29T23:55:20.061Z,99551.00
2018-06-29T23:57:49.995Z,99553.00
